createdAt,value
2023-06-15T00:00:09.261Z,63.71
2023-06-15T00:04:13.790Z,63.50
2023-06-15T00:08:15.629Z,63.67
2023-06-15T00:12:17.701Z,64.69
2023-06-15T00:16:19.967Z,64.89
2023-06-15T00:20:45.145Z,64.02
2023-06-15T00:24:46.847Z,64.77
2023-06-15T00:28:48.698Z,64.91
2023-06-15T00:32:52.422Z,65.47
2023-06-15T00:36:54.254Z,65.21
2023-06-15T00:40:55.974Z,65.94
2023-06-15T00:44:57.903Z,66.00
2023-06-15T00:48:59.937Z,66.42
2023-06-15T00:53:04.726Z,65.91
2023-06-15T00:57:07.799Z,66.03
2023-06-15T01:01:09.575Z,66.17
2023-06-15T01:05:11.755Z,66.04
2023-06-15T01:09:13.640Z,66.63
2023-06-15T01:13:21.328Z,67.05
2023-06-15T01:17:25.353Z,67.06
2023-06-15T01:21:31.504Z,68.12
2023-06-15T01:25:43.548Z,68.71
2023-06-15T01:29:46.218Z,69.03
2023-06-15T01:33:52.134Z,69.75
2023-06-15T01:37:53.955Z,69.76
2023-06-15T01:41:56.618Z,69.68
2023-06-15T01:46:01.010Z,70.01
2023-06-15T01:50:03.761Z,70.46
2023-06-15T01:54:05.638Z,71.04
2023-06-15T01:58:07.701Z,71.01
2023-06-15T02:02:09.516Z,71.26
2023-06-15T02:06:11.553Z,71.87
2023-06-15T02:10:13.692Z,72.31
2023-06-15T02:14:19.066Z,72.33
2023-06-15T02:18:23.171Z,72.74
2023-06-15T02:22:25.006Z,73.38
2023-06-15T02:26:27.230Z,74.91
2023-06-15T02:30:29.036Z,75.31
2023-06-15T02:34:31.922Z,75.85
2023-06-15T02:38:33.626Z,77.17
2023-06-15T02:42:36.400Z,76.92
2023-06-15T02:46:38.127Z,77.71
2023-06-15T02:50:39.873Z,77.85
2023-06-15T02:54:48.468Z,78.43
2023-06-15T02:58:56.126Z,79.14
2023-06-15T03:03:23.676Z,79.75
2023-06-15T03:07:27.188Z,80.87
2023-06-15T03:11:54.186Z,82.07
2023-06-15T03:16:08.351Z,82.50
2023-06-15T03:20:12.374Z,84.13
2023-06-15T03:24:17.832Z,85.09
2023-06-15T03:28:24.651Z,86.04
2023-06-15T03:32:29.521Z,86.00
2023-06-15T03:36:33.184Z,86.14
2023-06-15T03:40:38.564Z,87.03
2023-06-15T03:44:41.162Z,87.20
2023-06-15T03:48:43.280Z,86.76
2023-06-15T03:52:45.349Z,87.02
2023-06-15T03:56:47.199Z,87.30
2023-06-15T04:00:49.145Z,87.83
2023-06-15T04:04:56.299Z,88.15
2023-06-15T04:08:59.389Z,87.81
2023-06-15T04:13:01.600Z,87.83
2023-06-15T04:17:04.660Z,88.68
2023-06-15T04:21:06.632Z,88.46
2023-06-15T04:25:09.443Z,89.33
2023-06-15T04:29:14.116Z,89.25
2023-06-15T04:33:18.260Z,88.95
2023-06-15T04:37:20.576Z,89.71
2023-06-15T04:41:24.247Z,89.05
2023-06-15T04:45:30.980Z,88.82
2023-06-15T04:49:33.407Z,88.71
2023-06-15T04:53:37.367Z,88.76
2023-06-15T04:57:39.451Z,89.06
2023-06-15T05:01:41.180Z,89.73
2023-06-15T05:05:52.738Z,89.77
2023-06-15T05:09:54.591Z,89.50
2023-06-15T05:13:59.594Z,88.86
2023-06-15T05:18:01.533Z,88.40
2023-06-15T05:22:04.163Z,88.58
2023-06-15T05:26:25.040Z,88.25
2023-06-15T05:30:31.867Z,88.07
2023-06-15T05:34:34.321Z,87.86
2023-06-15T05:38:36.384Z,87.06
2023-06-15T05:42:38.640Z,86.71
2023-06-15T05:46:40.720Z,86.07
2023-06-15T05:50:43.761Z,85.82
2023-06-15T05:54:46.723Z,85.21
2023-06-15T05:58:50.093Z,84.33
2023-06-15T06:02:51.879Z,83.59
2023-06-15T06:07:06.575Z,82.75
2023-06-15T06:11:11.144Z,82.20
2023-06-15T06:15:19.094Z,80.66
2023-06-15T06:19:22.199Z,79.79
2023-06-15T06:23:25.265Z,78.62
2023-06-15T06:27:27.546Z,77.66
2023-06-15T06:31:29.655Z,76.88
2023-06-15T06:35:31.778Z,75.73
2023-06-15T06:39:34.278Z,75.05
2023-06-15T06:43:37.042Z,74.93
2023-06-15T06:47:40.839Z,72.89
2023-06-15T06:51:43.528Z,71.54
2023-06-15T06:55:46.800Z,70.63
2023-06-15T06:59:49.313Z,69.24
2023-06-15T07:03:52.348Z,67.22
2023-06-15T07:07:55.280Z,66.13
2023-06-15T07:11:56.961Z,65.83
2023-06-15T07:15:59.478Z,63.45
2023-06-15T07:20:01.315Z,62.75
2023-06-15T07:24:04.180Z,61.50
2023-06-15T07:28:06.590Z,60.22
2023-06-15T07:32:09.282Z,58.94
2023-06-15T07:36:13.290Z,58.15
2023-06-15T07:40:17.162Z,56.26
2023-06-15T07:44:20.615Z,55.86
2023-06-15T07:48:22.603Z,55.85
2023-06-15T07:52:26.175Z,55.35
2023-06-15T07:56:29.901Z,55.44
2023-06-15T08:00:31.812Z,55.30
2023-06-15T08:04:36.458Z,54.36
2023-06-15T08:08:40.245Z,53.81
2023-06-15T08:12:44.299Z,52.33
2023-06-15T08:16:47.092Z,52.80
2023-06-15T08:20:51.291Z,50.30
2023-06-15T08:24:53.148Z,50.08
2023-06-15T08:28:59.219Z,49.25
2023-06-15T08:33:06.530Z,48.67
2023-06-15T08:37:11.319Z,47.55
2023-06-15T08:41:15.315Z,47.33
2023-06-15T08:45:17.723Z,45.23
2023-06-15T08:49:19.556Z,44.85
2023-06-15T08:53:23.828Z,42.16
2023-06-15T08:57:25.702Z,41.08
2023-06-15T09:01:30.790Z,41.27
2023-06-15T09:05:34.335Z,41.54
2023-06-15T09:09:36.083Z,40.80
2023-06-15T09:13:39.088Z,40.19
2023-06-15T09:17:42.619Z,39.35
2023-06-15T09:21:53.110Z,38.80
2023-06-15T09:25:55.909Z,37.62
2023-06-15T09:30:04.190Z,37.81
2023-06-15T09:34:09.304Z,38.31
2023-06-15T09:38:11.208Z,37.77
2023-06-15T09:42:13.304Z,38.00
2023-06-15T09:46:22.303Z,37.20
2023-06-15T09:50:32.994Z,36.95
2023-06-15T09:54:40.295Z,36.57
2023-06-15T09:58:42.144Z,34.80
2023-06-15T10:02:46.360Z,35.52
2023-06-15T10:06:51.998Z,35.34
2023-06-15T10:10:59.941Z,35.50
2023-06-15T10:15:22.135Z,32.76
2023-06-15T10:19:26.976Z,34.17
2023-06-15T10:23:42.096Z,34.17
2023-06-15T10:27:47.308Z,34.64
2023-06-15T10:32:02.985Z,34.67
2023-06-15T10:36:13.265Z,34.73
2023-06-15T10:40:27.791Z,35.20
2023-06-15T10:44:33.459Z,35.88
2023-06-15T10:48:40.299Z,35.27
2023-06-15T10:52:42.183Z,34.10
2023-06-15T10:56:51.302Z,33.11
2023-06-15T11:01:05.596Z,33.28
2023-06-15T11:05:10.379Z,34.05
2023-06-15T11:09:16.329Z,34.68
2023-06-15T11:13:26.374Z,33.98
2023-06-15T11:17:31.388Z,32.51
2023-06-15T11:21:34.320Z,32.49
2023-06-15T11:25:37.664Z,32.74
2023-06-15T11:29:44.714Z,33.68
2023-06-15T11:33:48.715Z,34.04
2023-06-15T11:37:51.835Z,34.71
2023-06-15T11:41:58.166Z,32.92
2023-06-15T11:46:02.323Z,32.06
2023-06-15T11:50:05.454Z,31.38
2023-06-15T11:54:11.810Z,31.17
2023-06-15T11:58:15.448Z,31.09
2023-06-15T12:02:18.121Z,31.26
2023-06-15T12:06:23.880Z,29.48
2023-06-15T12:10:27.341Z,28.87
2023-06-15T12:14:29.129Z,28.04
2023-06-15T12:18:31.146Z,27.75
2023-06-15T12:22:43.371Z,25.78
2023-06-15T12:26:52.342Z,25.25
2023-06-15T12:31:03.376Z,26.09
2023-06-15T12:35:06.407Z,24.85
2023-06-15T12:39:12.656Z,24.16
2023-06-15T12:43:17.959Z,23.30
2023-06-15T12:47:19.685Z,23.21
2023-06-15T12:51:23.230Z,21.82
2023-06-15T12:55:27.393Z,21.64
2023-06-15T12:59:29.347Z,22.56
2023-06-15T13:03:32.523Z,23.06
2023-06-15T13:07:34.725Z,24.64
2023-06-15T13:11:39.355Z,23.66
2023-06-15T13:15:42.333Z,23.03
2023-06-15T13:19:45.313Z,22.99
2023-06-15T13:23:48.122Z,20.98
2023-06-15T13:27:50.379Z,19.84
2023-06-15T13:31:52.890Z,18.59
2023-06-15T13:35:56.894Z,18.00
2023-06-15T13:40:01.065Z,17.44
2023-06-15T13:44:03.226Z,16.60
2023-06-15T13:48:06.496Z,16.13
2023-06-15T13:52:08.490Z,15.12
2023-06-15T13:56:10.306Z,15.54
2023-06-15T14:00:12.669Z,14.96
2023-06-15T14:04:14.983Z,15.11
2023-06-15T14:08:17.824Z,13.92
2023-06-15T14:12:19.613Z,14.29
2023-06-15T14:16:21.739Z,15.09
2023-06-15T14:20:24.414Z,16.79
2023-06-15T14:24:26.201Z,17.99
2023-06-15T14:28:27.969Z,19.90
2023-06-15T14:32:30.381Z,21.70
2023-06-15T14:36:32.851Z,22.37
2023-06-15T14:40:34.756Z,22.48
2023-06-15T14:44:36.618Z,20.11
2023-06-15T14:48:38.387Z,17.75
2023-06-15T14:52:42.086Z,18.32
2023-06-15T14:56:44.392Z,19.68
2023-06-15T15:00:46.139Z,20.71
2023-06-15T15:04:48.729Z,21.79
2023-06-15T15:08:53.399Z,22.29
2023-06-15T15:12:55.727Z,20.79
2023-06-15T15:16:57.639Z,19.61
2023-06-15T15:21:01.221Z,20.07
2023-06-15T15:25:04.751Z,21.27
2023-06-15T15:29:07.411Z,22.31
2023-06-15T15:33:09.735Z,22.73
2023-06-15T15:37:11.994Z,23.49
2023-06-15T15:41:15.401Z,23.89
2023-06-15T15:45:17.143Z,23.30
2023-06-15T15:49:21.233Z,23.69
2023-06-15T15:53:23.054Z,24.37
2023-06-15T15:57:25.419Z,23.97
2023-06-15T16:01:28.726Z,24.56
2023-06-15T16:05:30.692Z,24.78
2023-06-15T16:09:33.389Z,24.64
2023-06-15T16:13:36.877Z,24.75
2023-06-15T16:17:41.745Z,25.19
2023-06-15T16:21:43.781Z,24.54
2023-06-15T16:25:46.455Z,24.34
2023-06-15T16:29:49.967Z,24.01
2023-06-15T16:33:52.449Z,23.41
2023-06-15T16:37:54.392Z,24.06
2023-06-15T16:41:56.413Z,23.79
2023-06-15T16:45:58.397Z,23.52
2023-06-15T16:50:01.057Z,23.97
2023-06-15T16:54:02.918Z,24.38
2023-06-15T16:58:06.230Z,24.52
2023-06-15T17:02:10.459Z,24.66
2023-06-15T17:06:12.247Z,24.88
2023-06-15T17:10:16.052Z,24.11
2023-06-15T17:14:18.364Z,24.43
2023-06-15T17:18:21.510Z,25.33
2023-06-15T17:22:24.742Z,25.14
2023-06-15T17:26:26.857Z,25.55
2023-06-15T17:30:28.722Z,25.20
2023-06-15T17:34:32.400Z,25.30
2023-06-15T17:38:36.436Z,25.31
2023-06-15T17:42:39.307Z,26.08
2023-06-15T17:46:41.253Z,26.07
2023-06-15T17:50:43.036Z,26.46
2023-06-15T17:54:46.951Z,26.80
2023-06-15T17:58:50.407Z,27.53
2023-06-15T18:02:53.549Z,27.73
2023-06-15T18:06:55.446Z,28.05
2023-06-15T18:10:58.438Z,28.39
2023-06-15T18:15:00.165Z,28.65
2023-06-15T18:19:08.663Z,29.12
2023-06-15T18:23:10.938Z,29.57
2023-06-15T18:27:13.017Z,29.64
2023-06-15T18:31:14.720Z,30.40
2023-06-15T18:35:16.645Z,30.97
2023-06-15T18:39:19.061Z,31.19
2023-06-15T18:43:21.783Z,31.58
2023-06-15T18:47:26.580Z,32.24
2023-06-15T18:51:28.780Z,33.22
2023-06-15T18:55:31.229Z,33.99
2023-06-15T18:59:33.589Z,34.73
2023-06-15T19:03:35.413Z,35.06
2023-06-15T19:07:38.046Z,35.89
2023-06-15T19:11:42.465Z,36.03
2023-06-15T19:15:47.266Z,36.94
2023-06-15T19:19:49.009Z,37.36
2023-06-15T19:23:51.790Z,37.76
2023-06-15T19:27:53.838Z,38.06
2023-06-15T19:31:55.788Z,38.71
2023-06-15T19:35:57.552Z,38.62
2023-06-15T19:40:00.496Z,38.49
2023-06-15T19:44:02.382Z,39.15
2023-06-15T19:48:04.772Z,39.31
2023-06-15T19:52:08.957Z,39.83
2023-06-15T19:56:12.216Z,39.46
2023-06-15T20:00:15.960Z,38.77
2023-06-15T20:04:19.455Z,38.69
2023-06-15T20:08:21.467Z,38.61
2023-06-15T20:12:23.324Z,38.23
2023-06-15T20:16:26.470Z,38.09
2023-06-15T20:20:28.215Z,37.82
2023-06-15T20:24:30.926Z,38.17
2023-06-15T20:28:36.887Z,38.09
2023-06-15T20:32:38.851Z,37.79
2023-06-15T20:36:43.821Z,38.04
2023-06-15T20:40:46.461Z,38.08
2023-06-15T20:48:52.944Z,38.39
2023-06-15T20:53:05.350Z,38.98
2023-06-15T20:57:07.558Z,38.97
2023-06-15T21:01:09.499Z,39.20
2023-06-15T21:05:11.966Z,39.93
2023-06-15T21:09:13.760Z,40.02
2023-06-15T21:13:16.538Z,40.04
2023-06-15T21:17:18.496Z,40.53
2023-06-15T21:21:20.789Z,40.68
2023-06-15T21:25:24.238Z,41.00
2023-06-15T21:29:26.051Z,41.28
2023-06-15T21:33:27.820Z,41.49
2023-06-15T21:37:32.499Z,41.83
2023-06-15T21:41:35.081Z,41.73
2023-06-15T21:45:36.806Z,42.19
2023-06-15T21:49:38.484Z,42.11
2023-06-15T21:53:40.179Z,42.34
2023-06-15T21:57:42.176Z,42.60
2023-06-15T22:01:43.937Z,42.78
2023-06-15T22:05:45.947Z,43.18
2023-06-15T22:09:47.790Z,43.61
2023-06-15T22:13:50.251Z,43.88
2023-06-15T22:17:57.809Z,43.69
2023-06-15T22:21:59.791Z,44.10
2023-06-15T22:26:02.477Z,44.36
2023-06-15T22:30:04.575Z,44.26
2023-06-15T22:34:07.034Z,44.21
2023-06-15T22:38:08.826Z,44.28
2023-06-15T22:42:11.348Z,44.61
2023-06-15T22:46:13.082Z,44.96
2023-06-15T22:50:15.802Z,45.20
2023-06-15T22:54:17.709Z,45.35
2023-06-15T22:58:20.730Z,45.67
2023-06-15T23:02:23.821Z,46.22
2023-06-15T23:06:30.509Z,46.06
2023-06-15T23:10:32.292Z,46.58
2023-06-15T23:14:37.291Z,46.48
2023-06-15T23:18:39.433Z,46.22
2023-06-15T23:22:42.334Z,46.51
2023-06-15T23:26:44.703Z,46.74
2023-06-15T23:30:47.041Z,47.34
2023-06-15T23:34:48.732Z,47.03
2023-06-15T23:38:50.648Z,47.06
2023-06-15T23:42:52.394Z,47.74
2023-06-15T23:46:54.245Z,48.45
2023-06-15T23:50:55.953Z,49.48
2023-06-15T23:54:57.647Z,49.93
2023-06-15T23:58:59.388Z,49.22
